Metar z pełnej godziny Komunikat METAR ze strony awiacja.imgw.pl Metar G00 EPWA METAR EPWA 062300Z 22002KT 3600 -SN BR SCT003 BKN007 00/00 Q1009 NOSIG=